Time;durP1;ratioP1;P1;durP2;ratioP2;P2;SDS_P1;SDS_P2;PMS_P1;PMS_P2;Temp;Humidity;BMP_temperature;BMP_pressure;BME280_temperature;BME280_humidity;BME280_pressure;Samples;Min_cycle;Max_cycle;Signal;HPM_P1;HPM_P2
2023/07/10 00:00:57;;;;;;;4.50;3.67;;;;;;;19.60;60.53;95370.81;5115804;28;20187;-70
2023/07/10 00:03:30;;;;;;;3.58;3.28;;;;;;;19.53;60.46;95372.84;5115041;28;20212;-70
2023/07/10 00:06:01;;;;;;;3.38;3.08;;;;;;;19.46;61.07;95368.03;5115820;28;20188;-70
2023/07/10 00:08:29;;;;;;;4.05;3.65;;;;;;;19.41;61.36;95360.88;5115781;28;20260;-70
2023/07/10 00:10:59;;;;;;;3.60;3.30;;;;;;;19.35;61.32;95370.88;5115661;28;20237;-70
2023/07/10 00:13:27;;;;;;;4.18;3.15;;;;;;;19.32;61.87;95373.66;5115233;28;20231;-70
2023/07/10 00:15:56;;;;;;;6.07;3.70;;;;;;;19.30;61.82;95365.69;5115800;28;20180;-70
2023/07/10 00:18:24;;;;;;;3.90;3.60;;;;;;;19.30;61.86;95362.09;5114768;28;20213;-70
2023/07/10 00:20:54;;;;;;;5.25;3.47;;;;;;;19.26;61.86;95364.91;5115296;28;20600;-70
2023/07/10 00:23:24;;;;;;;3.83;3.38;;;;;;;19.23;61.87;95365.69;5115425;28;20611;-70
2023/07/10 00:25:52;;;;;;;3.85;3.55;;;;;;;19.22;62.33;95375.31;5118964;28;20188;-70
2023/07/10 00:28:22;;;;;;;4.45;3.63;;;;;;;19.23;62.34;95366.50;5118616;28;20243;-70
2023/07/10 00:30:53;;;;;;;3.53;3.22;;;;;;;19.21;62.66;95368.13;5119792;28;20194;-70
2023/07/10 00:33:21;;;;;;;3.75;3.45;;;;;;;19.13;63.05;95378.47;5119778;28;20207;-70
2023/07/10 00:35:49;;;;;;;3.55;3.30;;;;;;;19.08;62.69;95381.69;5119936;28;20180;-70
2023/07/10 00:38:29;;;;;;;3.60;3.20;;;;;;;18.99;62.63;95379.31;5118903;28;20214;-70
2023/07/10 00:40:58;;;;;;;3.90;3.50;;;;;;;18.91;62.48;95376.91;5119688;27;20184;-70
2023/07/10 00:43:33;;;;;;;3.50;3.30;;;;;;;18.88;62.67;95370.13;5118658;28;20263;-70
2023/07/10 00:46:10;;;;;;;3.58;3.28;;;;;;;18.89;63.23;95370.94;5119298;28;20555;-70
2023/07/10 00:48:43;;;;;;;4.20;3.42;;;;;;;18.89;62.81;95373.72;5118536;28;20191;-70
2023/07/10 00:51:17;;;;;;;3.80;3.40;;;;;;;18.94;63.22;95373.31;5119406;28;20217;-70
2023/07/10 00:53:49;;;;;;;3.50;3.20;;;;;;;18.95;63.80;95375.72;5118467;28;20199;-70
2023/07/10 00:56:19;;;;;;;4.20;3.90;;;;;;;18.97;63.97;95376.09;5119379;28;20188;-70
2023/07/10 00:58:49;;;;;;;4.13;3.80;;;;;;;18.99;63.88;95375.69;5119238;28;20203;-70
2023/07/10 01:01:19;;;;;;;4.50;4.10;;;;;;;18.97;63.43;95378.91;5119258;28;20180;-70
2023/07/10 01:03:50;;;;;;;4.90;4.43;;;;;;;18.95;64.07;95374.91;5119164;28;20310;-70
2023/07/10 01:06:21;;;;;;;5.80;5.18;;;;;;;18.93;64.17;95372.53;5118907;28;20622;-70
2023/07/10 01:08:53;;;;;;;5.25;4.75;;;;;;;18.85;64.54;95367.34;5119058;28;20188;-70
2023/07/10 01:11:21;;;;;;;5.03;3.97;;;;;;;18.77;64.74;95372.09;5119058;28;20206;-70
2023/07/10 01:13:53;;;;;;;4.53;4.10;;;;;;;18.66;64.28;95374.06;5117909;28;20210;-70
2023/07/10 01:16:24;;;;;;;4.38;3.88;;;;;;;18.57;64.49;95373.69;5119037;28;20275;-70
2023/07/10 01:18:55;;;;;;;4.25;3.85;;;;;;;18.55;64.78;95381.63;5118003;28;20195;-70
2023/07/10 01:21:31;;;;;;;5.03;4.25;;;;;;;18.51;64.90;95382.44;5117634;28;20223;-70
2023/07/10 01:24:00;;;;;;;3.85;3.55;;;;;;;18.51;64.63;95382.44;5117857;28;20284;-70
2023/07/10 01:26:29;;;;;;;4.63;4.05;;;;;;;18.56;64.73;95383.25;5100543;28;20204;-70
2023/07/10 01:28:57;;;;;;;5.20;4.43;;;;;;;18.56;64.88;95381.25;5117231;28;20231;-70
2023/07/10 01:31:27;;;;;;;4.53;4.13;;;;;;;18.52;65.37;95384.06;5118877;28;20187;-70
2023/07/10 01:33:56;;;;;;;4.57;4.18;;;;;;;18.47;65.37;95378.03;5117316;28;20207;-70
2023/07/10 01:36:32;;;;;;;4.90;4.10;;;;;;;18.37;65.09;95373.22;5117735;28;20199;-70
2023/07/10 01:39:06;;;;;;;4.38;3.97;;;;;;;18.30;65.76;95374.03;5118485;28;20183;-69
2023/07/10 01:41:39;;;;;;;8.02;4.55;;;;;;;18.18;65.39;95375.19;5117888;28;20195;-70
2023/07/10 01:44:15;;;;;;;4.72;4.32;;;;;;;18.11;65.31;95374.38;5117835;28;20215;-70
2023/07/10 01:46:45;;;;;;;5.65;4.43;;;;;;;18.12;64.93;95370.38;5118298;28;20559;-70
2023/07/10 01:49:16;;;;;;;6.05;4.70;;;;;;;18.15;64.92;95375.97;5117303;28;20299;-70
2023/07/10 01:51:45;;;;;;;6.07;4.90;;;;;;;18.17;65.09;95381.97;5117683;28;20203;-70
2023/07/10 01:54:15;;;;;;;5.70;4.70;;;;;;;18.19;65.75;95378.78;5117423;28;20207;-70
2023/07/10 01:56:44;;;;;;;5.30;4.45;;;;;;;18.15;65.57;95381.56;5116931;28;20195;-70
2023/07/10 01:59:55;;;;;;;5.18;4.43;;;;;;;18.10;65.52;95381.94;5117151;28;20199;-70
2023/07/10 02:03:00;;;;;;;5.07;4.60;;;;;;;18.12;65.51;95378.75;5075728;28;20292;-70
2023/07/10 02:06:05;;;;;;;4.88;4.47;;;;;;;18.15;65.94;95380.75;5059228;28;20231;-70
2023/07/10 02:09:10;;;;;;;5.28;4.78;;;;;;;18.09;66.11;95380.34;5058899;28;20633;-70
2023/07/10 02:12:15;;;;;;;5.20;4.45;;;;;;;18.06;65.99;95383.13;5075362;28;20209;-70
2023/07/10 02:15:21;;;;;;;5.43;4.93;;;;;;;18.01;66.31;95384.28;5075268;28;20197;-70
2023/07/10 02:18:25;;;;;;;4.70;4.28;;;;;;;17.98;65.97;95387.91;5075354;28;20212;-70
2023/07/10 02:21:29;;;;;;;5.88;4.85;;;;;;;17.93;66.80;95388.25;5075205;28;20212;-70
2023/07/10 02:24:34;;;;;;;6.55;4.88;;;;;;;17.90;67.30;95394.63;5075028;28;20205;-70
2023/07/10 02:27:38;;;;;;;5.85;4.93;;;;;;;17.85;67.21;95393.00;5075156;28;20250;-70
2023/07/10 02:30:44;;;;;;;5.07;4.68;;;;;;;17.83;66.76;95394.59;5074757;28;20252;-70
2023/07/10 02:33:50;;;;;;;5.03;4.53;;;;;;;17.77;66.63;95402.56;5087823;28;20238;-70
2023/07/10 02:36:55;;;;;;;5.22;4.70;;;;;;;17.77;67.20;95403.34;5117550;28;20195;-70
2023/07/10 02:40:00;;;;;;;6.82;4.93;;;;;;;17.69;67.72;95404.47;5117107;28;20179;-70
2023/07/10 02:43:05;;;;;;;4.80;4.30;;;;;;;17.61;68.33;95414.00;5116358;28;20199;-70
2023/07/10 02:46:11;;;;;;;5.22;4.38;;;;;;;17.61;68.52;95402.03;5115907;28;20227;-70
2023/07/10 02:49:16;;;;;;;5.38;4.38;;;;;;;17.68;67.97;95411.22;5115906;28;20608;-70
2023/07/10 02:52:22;;;;;;;5.47;4.50;;;;;;;17.69;67.83;95412.84;5116783;28;20600;-70
2023/07/10 02:55:28;;;;;;;5.30;4.45;;;;;;;17.69;68.33;95410.06;5116048;28;20195;-70
2023/07/10 02:58:33;;;;;;;7.43;4.63;;;;;;;17.70;68.48;95411.66;5116815;28;20624;-70
2023/07/10 03:01:03;;;;;;;7.68;4.80;;;;;;;17.66;68.27;95412.81;5116711;28;20642;-70
2023/07/10 03:03:34;;;;;;;4.95;4.13;;;;;;;17.63;68.28;95411.59;5116841;28;20192;-70
2023/07/10 03:06:05;;;;;;;4.70;4.22;;;;;;;17.62;68.51;95418.38;5116457;28;20196;-70
2023/07/10 03:08:33;;;;;;;5.30;4.57;;;;;;;17.60;68.58;95420.75;5116573;28;20183;-70
2023/07/10 03:11:02;;;;;;;5.05;4.53;;;;;;;17.59;68.61;95423.94;5115736;28;20256;-70
2023/07/10 03:13:29;;;;;;;5.13;4.43;;;;;;;17.55;68.81;95418.34;5116523;28;20211;-70
2023/07/10 03:16:03;;;;;;;6.20;4.65;;;;;;;17.50;68.71;95419.53;5116540;28;20218;-70
2023/07/10 03:18:32;;;;;;;6.63;4.70;;;;;;;17.47;68.98;95425.88;5116275;28;20199;-70
2023/07/10 03:21:00;;;;;;;5.85;4.68;;;;;;;17.48;69.03;95421.88;5115493;28;20188;-70
2023/07/10 03:23:27;;;;;;;4.95;4.10;;;;;;;17.48;68.93;95427.47;5115812;28;20206;-70
2023/07/10 03:25:55;;;;;;;5.97;4.88;;;;;;;17.50;69.47;95424.28;5116568;28;20214;-70
2023/07/10 03:28:23;;;;;;;6.13;4.80;;;;;;;17.48;69.47;95426.66;5114904;28;20223;-70
2023/07/10 03:30:51;;;;;;;7.68;5.00;;;;;;;17.46;69.32;95426.25;5115394;28;20203;-70
2023/07/10 03:33:22;;;;;;;5.25;4.72;;;;;;;17.46;68.93;95427.03;5115734;28;20198;-70
2023/07/10 03:35:59;;;;;;;5.60;4.50;;;;;;;17.45;69.31;95433.00;5115657;28;20184;-70
2023/07/10 03:38:27;;;;;;;6.60;4.57;;;;;;;17.45;69.61;95430.22;5115329;28;20257;-70
2023/07/10 03:40:56;;;;;;;7.25;4.53;;;;;;;17.43;69.49;95432.59;5116144;28;20179;-70
2023/07/10 03:43:27;;;;;;;6.70;4.80;;;;;;;17.43;69.60;95435.38;5115220;28;20202;-70
2023/07/10 03:45:59;;;;;;;6.55;4.75;;;;;;;17.46;69.63;95429.03;5116019;28;20200;-70
2023/07/10 03:48:28;;;;;;;9.32;4.32;;;;;;;17.40;68.92;95441.75;5116698;28;20245;-70
2023/07/10 03:50:57;;;;;;;4.95;4.45;;;;;;;17.39;69.51;95443.72;5115054;28;20206;-70
2023/07/10 03:53:27;;;;;;;5.97;4.57;;;;;;;17.43;69.86;95443.75;5116338;28;20191;-70
2023/07/10 03:55:56;;;;;;;11.88;5.15;;;;;;;17.48;69.87;95448.97;5114789;28;20252;-70
2023/07/10 03:58:28;;;;;;;5.32;4.82;;;;;;;17.52;70.05;95447.00;5115062;28;20212;-70
2023/07/10 04:00:57;;;;;;;7.15;5.43;;;;;;;17.55;70.15;95451.81;5115949;28;20196;-70
2023/07/10 04:03:30;;;;;;;8.88;5.35;;;;;;;17.54;69.75;95448.22;5114958;28;20211;-70
2023/07/10 04:05:59;;;;;;;7.30;5.82;;;;;;;17.55;69.47;95460.97;5115013;28;20216;-70
2023/07/10 04:08:32;;;;;;;8.52;7.35;;;;;;;17.58;69.77;95453.81;5115798;28;20289;-70
2023/07/10 04:11:02;;;;;;;8.90;7.57;;;;;;;17.62;69.93;95454.66;5114853;28;20199;-70
2023/07/10 04:13:30;;;;;;;11.63;7.28;;;;;;;17.65;69.95;95459.44;5115916;28;20198;-70
2023/07/10 04:15:59;;;;;;;6.85;6.13;;;;;;;17.70;68.93;95461.84;5115700;28;20194;-70
2023/07/10 04:18:30;;;;;;;8.02;6.20;;;;;;;17.73;68.67;95455.50;5115879;28;20180;-70
2023/07/10 04:20:58;;;;;;;7.97;5.68;;;;;;;17.76;68.32;95459.53;5115317;28;20187;-70
2023/07/10 04:23:26;;;;;;;7.53;5.13;;;;;;;17.78;68.11;95459.94;5114775;28;20223;-70
2023/07/10 04:25:55;;;;;;;5.03;4.53;;;;;;;17.78;67.20;95455.16;5115536;28;20206;-70
2023/07/10 04:28:23;;;;;;;5.47;4.43;;;;;;;17.79;67.06;95453.16;5115521;28;20250;-70
2023/07/10 04:30:51;;;;;;;5.90;4.82;;;;;;;17.79;67.24;95453.97;5115445;28;20196;-70
2023/07/10 04:33:20;;;;;;;5.60;4.75;;;;;;;17.83;66.64;95453.19;5115453;28;20578;-70
2023/07/10 04:35:55;;;;;;;5.55;4.72;;;;;;;17.87;66.86;95451.22;5114588;28;20693;-71
2023/07/10 04:38:24;;;;;;;5.35;4.82;;;;;;;17.92;67.35;95456.44;5115251;28;20188;-70
2023/07/10 04:40:58;;;;;;;6.25;4.78;;;;;;;17.95;67.35;95456.44;5114489;28;20199;-70
2023/07/10 04:43:28;;;;;;;5.45;4.78;;;;;;;17.98;67.36;95463.25;5114567;28;20194;-70
2023/07/10 04:45:57;;;;;;;6.57;4.80;;;;;;;18.01;67.66;95454.06;5115002;28;20212;-70
2023/07/10 04:48:28;;;;;;;8.05;5.03;;;;;;;18.06;67.23;95459.28;5115197;28;20180;-70
2023/07/10 04:50:58;;;;;;;7.85;5.03;;;;;;;18.13;67.73;95452.94;5115227;28;20199;-70
2023/07/10 04:53:28;;;;;;;7.75;5.30;;;;;;;18.15;67.70;95453.34;5115138;28;20246;-70
2023/07/10 04:55:57;;;;;;;7.28;5.13;;;;;;;18.19;67.50;95456.94;5114759;28;20203;-70
2023/07/10 04:58:25;;;;;;;5.13;4.63;;;;;;;18.24;67.64;95451.00;5114341;28;20191;-70
2023/07/10 05:00:54;;;;;;;7.38;5.28;;;;;;;18.30;67.79;95443.84;5114145;28;20200;-70
2023/07/10 05:03:22;;;;;;;8.40;5.10;;;;;;;18.34;68.01;95449.41;5114229;28;20196;-70
2023/07/10 05:05:56;;;;;;;8.88;5.32;;;;;;;18.42;68.08;95445.47;5114165;28;20212;-70
2023/07/10 05:08:27;;;;;;;7.07;5.40;;;;;;;18.51;67.97;95440.28;5114937;28;20198;-70
2023/07/10 05:10:58;;;;;;;6.15;5.10;;;;;;;18.60;66.96;95445.50;5118205;28;20274;-70
2023/07/10 05:13:30;;;;;;;7.57;4.93;;;;;;;18.72;66.11;95442.38;5100874;28;20204;-70
2023/07/10 05:16:00;;;;;;;5.53;4.53;;;;;;;18.85;65.60;95445.59;5119059;28;20179;-70
2023/07/10 05:18:30;;;;;;;5.75;4.55;;;;;;;18.99;65.16;95452.00;5117937;28;20572;-70
2023/07/10 05:21:00;;;;;;;5.35;4.05;;;;;;;19.09;64.97;95455.19;5117621;28;20252;-70
2023/07/10 05:23:29;;;;;;;4.85;4.40;;;;;;;19.18;64.42;95455.59;5118022;28;20196;-70
2023/07/10 05:25:59;;;;;;;4.82;4.43;;;;;;;19.26;64.41;95453.59;5117876;28;20212;-70
2023/07/10 05:28:27;;;;;;;4.80;4.35;;;;;;;19.32;63.41;95452.78;5117654;28;20296;-70
2023/07/10 05:30:59;;;;;;;4.88;4.35;;;;;;;19.37;62.71;95455.19;5117818;28;20202;-70
2023/07/10 05:33:27;;;;;;;5.30;4.80;;;;;;;19.45;62.10;95455.97;5117915;28;20207;-70
2023/07/10 05:35:58;;;;;;;4.63;4.22;;;;;;;19.51;61.39;95462.75;5117822;28;20199;-70
2023/07/10 05:38:32;;;;;;;4.75;4.30;;;;;;;19.58;61.00;95459.16;5118588;27;20184;-70
2023/07/10 05:41:01;;;;;;;4.60;4.20;;;;;;;19.62;60.34;95457.16;5118121;28;20649;-70
2023/07/10 05:43:29;;;;;;;5.07;4.13;;;;;;;19.66;60.40;95455.19;5118166;28;20183;-70
2023/07/10 05:45:59;;;;;;;4.60;4.28;;;;;;;19.70;60.14;95450.38;5116805;28;20223;-70
2023/07/10 05:48:27;;;;;;;4.85;4.40;;;;;;;19.71;60.57;95446.34;5117516;28;20199;-70
2023/07/10 05:50:58;;;;;;;5.10;4.15;;;;;;;19.75;60.51;95455.53;5117958;28;20199;-70
2023/07/10 05:53:33;;;;;;;5.10;4.60;;;;;;;19.77;60.81;95458.75;5117977;28;20604;-70
2023/07/10 05:56:02;;;;;;;5.32;4.70;;;;;;;19.80;61.20;95457.16;5118233;28;20187;-70
2023/07/10 05:58:31;;;;;;;5.13;4.30;;;;;;;19.85;60.63;95456.72;5117289;28;20203;-71
2023/07/10 06:01:00;;;;;;;6.05;4.88;;;;;;;19.91;60.33;95453.13;5117988;28;20651;-71
2023/07/10 06:03:31;;;;;;;4.85;4.32;;;;;;;19.96;60.56;95451.91;5117056;28;20207;-71
2023/07/10 06:06:01;;;;;;;5.25;4.63;;;;;;;20.01;60.51;95450.69;5118022;28;20204;-71
2023/07/10 06:08:32;;;;;;;4.68;4.28;;;;;;;20.05;60.46;95448.69;5117258;28;20196;-71
2023/07/10 06:11:00;;;;;;;5.43;4.30;;;;;;;20.10;59.91;95451.84;5117943;28;20248;-70
2023/07/10 06:13:28;;;;;;;4.72;4.32;;;;;;;20.16;59.68;95460.66;5116578;28;20215;-71
2023/07/10 06:16:00;;;;;;;5.93;4.70;;;;;;;20.22;59.99;95447.00;5117285;28;20203;-70
2023/07/10 06:18:27;;;;;;;5.35;4.95;;;;;;;20.26;59.81;95450.59;5117605;28;20197;-70
2023/07/10 06:20:57;;;;;;;5.63;5.13;;;;;;;20.29;59.51;95453.38;5115525;28;20184;-70
2023/07/10 06:23:28;;;;;;;5.88;5.38;;;;;;;20.34;59.74;95454.97;5117383;28;20649;-70
2023/07/10 06:25:58;;;;;;;5.53;4.70;;;;;;;20.37;59.99;95454.97;5117782;28;20200;-70
2023/07/10 06:28:29;;;;;;;5.10;4.70;;;;;;;20.41;59.81;95455.75;5117188;28;20281;-70
2023/07/10 06:30:58;;;;;;;5.43;4.93;;;;;;;20.46;59.44;95456.50;5116561;28;20191;-70
2023/07/10 06:33:28;;;;;;;5.20;4.70;;;;;;;20.48;59.51;95457.72;5117477;28;20196;-70
2023/07/10 06:35:56;;;;;;;5.25;4.82;;;;;;;20.51;60.05;95454.09;5117195;28;20176;-70
2023/07/10 06:38:24;;;;;;;7.47;4.93;;;;;;;20.54;59.52;95458.91;5116421;28;20202;-70
2023/07/10 06:40:51;;;;;;;5.63;5.10;;;;;;;20.56;59.93;95462.09;5117272;28;20203;-70
2023/07/10 06:43:21;;;;;;;5.63;4.93;;;;;;;20.59;61.05;95471.69;5116541;28;20191;-70
2023/07/10 06:45:50;;;;;;;5.60;5.00;;;;;;;20.60;60.47;95464.88;5116808;28;20570;-70
2023/07/10 06:48:18;;;;;;;6.38;4.97;;;;;;;20.63;60.42;95467.66;5116953;28;20199;-70
2023/07/10 06:50:47;;;;;;;4.90;4.40;;;;;;;20.65;60.74;95462.44;5116204;28;20195;-70
2023/07/10 06:53:15;;;;;;;6.38;4.65;;;;;;;20.71;60.72;95462.03;5117129;28;20261;-70
2023/07/10 06:55:44;;;;;;;5.65;4.93;;;;;;;20.74;59.61;95461.22;5116721;28;20192;-71
2023/07/10 06:58:13;;;;;;;5.60;5.00;;;;;;;20.78;59.85;95462.78;5117044;28;20206;-71
2023/07/10 07:00:45;;;;;;;5.22;4.82;;;;;;;20.82;59.92;95459.94;5115777;28;20253;-70
2023/07/10 07:03:13;;;;;;;4.63;4.22;;;;;;;20.84;59.67;95452.72;5116651;28;20188;-70
2023/07/10 07:05:42;;;;;;;4.97;4.25;;;;;;;20.88;60.18;95449.91;5116506;28;20211;-70
2023/07/10 07:08:13;;;;;;;5.60;5.03;;;;;;;20.91;59.31;95455.50;5116531;28;20199;-70
2023/07/10 07:10:41;;;;;;;4.78;4.38;;;;;;;20.94;58.86;95453.06;5116451;28;20196;-70
2023/07/10 07:13:09;;;;;;;8.02;5.03;;;;;;;20.96;58.77;95459.84;5116691;28;20196;-70
2023/07/10 07:15:41;;;;;;;5.28;4.55;;;;;;;20.99;58.73;95444.19;5115750;28;20533;-70
2023/07/10 07:18:16;;;;;;;5.30;4.65;;;;;;;21.02;58.78;95444.16;5116727;28;20195;-71
2023/07/10 07:20:44;;;;;;;5.20;4.65;;;;;;;21.05;59.72;95446.16;5115609;28;20230;-70
2023/07/10 07:23:12;;;;;;;6.07;5.47;;;;;;;21.07;58.61;95442.97;5115588;28;20588;-70
2023/07/10 07:25:41;;;;;;;6.60;5.68;;;;;;;21.11;58.66;95441.72;5115865;28;20199;-70
2023/07/10 07:28:10;;;;;;;7.28;5.68;;;;;;;21.16;58.46;95441.25;5114868;28;20665;-70
2023/07/10 07:30:39;;;;;;;7.10;5.30;;;;;;;21.19;58.12;95444.47;5115442;28;20196;-70
2023/07/10 07:33:08;;;;;;;5.50;4.85;;;;;;;21.22;58.53;95438.03;5116018;28;20278;-70
2023/07/10 07:35:39;;;;;;;5.38;4.88;;;;;;;21.25;58.48;95438.00;5115512;28;20192;-70
2023/07/10 07:38:09;;;;;;;5.18;4.78;;;;;;;21.29;58.24;95440.78;5116404;28;20191;-70
2023/07/10 07:40:37;;;;;;;4.68;4.25;;;;;;;21.32;58.05;95437.16;5116199;28;20184;-70
2023/07/10 07:43:04;;;;;;;4.68;4.20;;;;;;;21.34;57.84;95443.16;5115966;28;20242;-70
2023/07/10 07:45:32;;;;;;;5.07;4.40;;;;;;;21.38;58.10;95435.50;5115122;28;20668;-70
2023/07/10 07:48:00;;;;;;;5.47;4.50;;;;;;;21.43;57.66;95435.06;5116075;28;20183;-70
2023/07/10 07:50:28;;;;;;;4.85;4.45;;;;;;;21.46;58.04;95434.25;5116032;28;20187;-70
2023/07/10 07:52:58;;;;;;;5.55;4.85;;;;;;;21.49;58.66;95432.59;5115009;28;20204;-70
2023/07/10 07:55:28;;;;;;;7.28;5.05;;;;;;;21.51;58.32;95430.97;5115928;28;20206;-70
2023/07/10 07:57:57;;;;;;;4.85;4.47;;;;;;;21.55;57.78;95431.75;5116111;28;20180;-70
2023/07/10 08:00:26;;;;;;;4.80;4.40;;;;;;;21.61;57.65;95432.91;5114406;28;20203;-70
2023/07/10 08:02:54;;;;;;;4.18;3.88;;;;;;;21.67;57.40;95429.63;5115756;28;20204;-70
2023/07/10 08:05:21;;;;;;;4.90;4.50;;;;;;;21.70;57.52;95435.22;5114670;28;20199;-70
2023/07/10 08:07:49;;;;;;;5.20;4.80;;;;;;;21.75;57.32;95433.94;5115040;28;20215;-70
2023/07/10 08:10:18;;;;;;;4.80;4.40;;;;;;;21.79;56.53;95429.13;5114918;28;20245;-70
2023/07/10 08:12:46;;;;;;;4.90;4.60;;;;;;;21.81;56.62;95424.66;5114847;28;20188;-70
2023/07/10 08:15:17;;;;;;;4.97;4.47;;;;;;;21.87;57.10;95423.00;5114805;28;20199;-70
2023/07/10 08:17:43;;;;;;;5.22;4.57;;;;;;;21.95;56.50;95415.28;5114664;28;20204;-70
2023/07/10 08:20:13;;;;;;;5.70;4.25;;;;;;;22.01;56.29;95419.25;5115690;28;20253;-70
2023/07/10 08:22:39;;;;;;;4.60;3.97;;;;;;;22.08;56.34;95415.56;5110474;28;20206;-70
2023/07/10 08:25:07;;;;;;;4.63;4.30;;;;;;;22.17;56.94;95420.69;5115410;28;20180;-70
2023/07/10 08:27:36;;;;;;;4.72;4.22;;;;;;;22.20;56.05;95420.66;5115612;28;20250;-70
2023/07/10 08:30:05;;;;;;;4.60;4.20;;;;;;;22.23;55.78;95419.81;5115458;28;20319;-70
2023/07/10 08:32:33;;;;;;;5.40;4.90;;;;;;;22.30;57.00;95416.13;5115601;28;20183;-70
2023/07/10 08:35:00;;;;;;;5.00;4.50;;;;;;;22.33;56.26;95418.88;5115269;28;20183;-70
2023/07/10 08:37:29;;;;;;;5.25;4.45;;;;;;;22.40;56.45;95411.56;5115183;28;20277;-70
2023/07/10 08:39:57;;;;;;;4.80;4.40;;;;;;;22.43;54.98;95414.31;5114947;28;20191;-70
2023/07/10 08:42:30;;;;;;;4.90;4.50;;;;;;;22.51;53.74;95413.03;5114630;28;20558;-70
2023/07/10 08:45:00;;;;;;;4.30;3.88;;;;;;;22.61;53.84;95418.91;5117432;28;20199;-70
2023/07/10 08:47:35;;;;;;;4.45;4.15;;;;;;;22.67;54.65;95411.59;5119653;28;20207;-70
2023/07/10 08:50:08;;;;;;;4.50;4.20;;;;;;;22.73;54.43;95412.69;5119539;28;20202;-70
2023/07/10 08:52:40;;;;;;;4.43;4.03;;;;;;;22.79;53.70;95413.81;5118707;28;20305;-70
2023/07/10 08:55:18;;;;;;;4.38;3.97;;;;;;;22.85;52.97;95417.75;5119176;28;20198;-70
2023/07/10 08:57:52;;;;;;;4.75;4.30;;;;;;;22.88;52.08;95416.91;5119415;28;20564;-70
2023/07/10 09:00:21;;;;;;;4.72;4.32;;;;;;;22.96;54.95;95417.63;5118547;28;20196;-70
2023/07/10 09:02:53;;;;;;;4.13;3.83;;;;;;;23.03;53.84;95420.34;5119261;28;20188;-70
2023/07/10 09:05:27;;;;;;;4.38;4.07;;;;;;;23.12;52.29;95414.94;5118874;28;20199;-70
2023/07/10 09:07:58;;;;;;;4.88;4.43;;;;;;;23.21;51.65;95414.44;5118527;28;20293;-70
2023/07/10 09:10:31;;;;;;;4.35;4.05;;;;;;;23.28;52.87;95408.69;5118440;28;20211;-70
2023/07/10 09:13:02;;;;;;;4.72;4.30;;;;;;;23.42;53.38;95410.44;5118224;28;20199;-70
2023/07/10 09:15:39;;;;;;;4.93;4.13;;;;;;;23.53;53.09;95402.63;5119244;28;20256;-70
2023/07/10 09:18:14;;;;;;;5.28;4.78;;;;;;;23.64;52.73;95403.22;5118046;28;20203;-70
2023/07/10 09:20:42;;;;;;;5.45;4.47;;;;;;;23.74;49.56;95410.69;5118886;28;20183;-70
2023/07/10 09:23:52;;;;;;;5.20;4.80;;;;;;;23.76;50.80;95408.25;5118415;28;20211;-70
2023/07/10 09:26:58;;;;;;;4.93;4.60;;;;;;;23.84;50.13;95406.09;5117898;28;20223;-71
2023/07/10 09:30:04;;;;;;;4.38;3.97;;;;;;;23.96;51.86;95399.81;5117748;28;20239;-70
2023/07/10 09:33:10;;;;;;;4.70;4.22;;;;;;;24.07;52.27;95407.25;5117890;28;20191;-70
2023/07/10 09:36:15;;;;;;;4.63;4.15;;;;;;;24.02;52.11;95406.53;5118681;28;20187;-70
2023/07/10 09:39:20;;;;;;;5.55;4.18;;;;;;;24.16;51.94;95396.22;5117301;28;20191;-70
2023/07/10 09:42:25;;;;;;;4.43;4.03;;;;;;;24.35;52.94;95398.22;5118075;28;20286;-70
2023/07/10 09:45:31;;;;;;;5.10;4.60;;;;;;;24.47;47.51;95399.59;5117709;28;20199;-70
2023/07/10 09:48:35;;;;;;;4.53;4.10;;;;;;;24.56;50.57;95397.00;5117377;28;20212;-70
2023/07/10 09:51:40;;;;;;;4.85;4.45;;;;;;;24.62;49.31;95388.81;5117353;28;20206;-70
2023/07/10 09:54:45;;;;;;;4.40;4.00;;;;;;;24.70;49.72;95390.25;5117361;28;20195;-70
2023/07/10 09:57:50;;;;;;;16.45;4.78;;;;;;;24.81;47.40;95382.34;5118148;28;20245;-70
2023/07/10 10:00:54;;;;;;;4.38;3.95;;;;;;;24.99;50.44;95379.09;5118217;28;20211;-70
2023/07/10 10:03:59;;;;;;;4.07;3.80;;;;;;;25.13;46.51;95364.69;5117421;28;20260;-70
2023/07/10 10:07:04;;;;;;;4.30;4.00;;;;;;;25.16;45.66;95365.81;5116996;28;20256;-70
2023/07/10 10:10:10;;;;;;;4.38;3.97;;;;;;;25.21;46.88;95365.31;5117928;27;20195;-70
2023/07/10 10:13:15;;;;;;;4.07;3.78;;;;;;;25.24;42.02;95358.78;5117702;28;20191;-70
2023/07/10 10:16:21;;;;;;;4.70;4.40;;;;;;;25.20;42.70;95353.22;5116957;28;20202;-70
2023/07/10 10:19:26;;;;;;;4.28;3.97;;;;;;;25.25;47.41;95349.06;5116977;28;20199;-70
2023/07/10 10:22:31;;;;;;;4.88;4.47;;;;;;;25.29;42.22;95344.13;5116888;28;20202;-70
2023/07/10 10:25:14;;;;;;;4.30;3.92;;;;;;;25.34;43.76;95340.75;5117597;28;20240;-70
2023/07/10 10:27:48;;;;;;;4.97;4.57;;;;;;;25.41;41.63;95337.75;5116702;28;20208;-70
2023/07/10 10:30:32;;;;;;;4.75;4.35;;;;;;;25.51;42.45;95337.91;5117491;28;20247;-70
2023/07/10 10:33:13;;;;;;;4.85;4.53;;;;;;;25.54;40.39;95340.66;5116587;28;20195;-70
2023/07/10 10:35:55;;;;;;;4.35;4.05;;;;;;;25.55;41.01;95333.75;5117074;28;20203;-70
2023/07/10 10:38:39;;;;;;;4.70;4.30;;;;;;;25.62;42.60;95338.41;5117044;28;20183;-70
2023/07/10 10:41:25;;;;;;;4.30;3.90;;;;;;;25.76;42.18;95338.03;5116146;27;20234;-70
2023/07/10 10:43:59;;;;;;;4.93;4.43;;;;;;;25.90;44.19;95334.84;5117228;28;20184;-70
2023/07/10 10:46:53;;;;;;;4.28;3.95;;;;;;;26.08;43.25;95342.81;5117254;28;20199;-70
2023/07/10 10:50:00;;;;;;;4.18;3.88;;;;;;;26.11;39.81;95338.31;5116138;28;20203;-70
2023/07/10 10:52:33;;;;;;;3.83;3.50;;;;;;;26.05;36.72;95335.22;5116674;28;20211;-70
2023/07/10 10:55:17;;;;;;;5.18;3.85;;;;;;;26.04;37.02;95333.66;5117175;28;20184;-70
2023/07/10 10:57:50;;;;;;;4.30;3.90;;;;;;;26.07;37.61;95340.41;5117090;28;20184;-70
2023/07/10 11:00:33;;;;;;;4.40;4.00;;;;;;;26.09;39.26;95327.44;5115567;28;20207;-70
2023/07/10 11:03:15;;;;;;;4.25;3.90;;;;;;;26.21;41.30;95325.88;5117035;28;20183;-70
2023/07/10 11:05:49;;;;;;;4.00;3.70;;;;;;;26.28;39.96;95324.88;5115750;28;20611;-70
2023/07/10 11:08:19;;;;;;;4.10;3.65;;;;;;;26.32;37.54;95317.84;5115596;28;20216;-70
2023/07/10 11:10:47;;;;;;;5.35;3.97;;;;;;;26.39;37.09;95320.47;5116707;28;20604;-70
2023/07/10 11:13:25;;;;;;;4.57;4.15;;;;;;;26.45;37.07;95319.94;5116776;28;20240;-70
2023/07/10 11:15:53;;;;;;;3.85;3.55;;;;;;;26.45;36.33;95309.41;5116443;28;20202;-70
2023/07/10 11:18:24;;;;;;;4.13;3.83;;;;;;;26.51;39.33;95304.81;5116386;28;20603;-70
2023/07/10 11:20:52;;;;;;;4.85;4.20;;;;;;;26.59;39.91;95316.69;5116507;28;20199;-70
2023/07/10 11:23:34;;;;;;;4.43;4.13;;;;;;;26.61;37.66;95308.53;5115493;28;20208;-70
2023/07/10 11:26:04;;;;;;;4.10;3.80;;;;;;;26.66;39.43;95305.16;5116543;28;20615;-70
2023/07/10 11:28:33;;;;;;;4.15;3.85;;;;;;;26.73;38.08;95304.13;5116126;28;20248;-70
2023/07/10 11:31:32;;;;;;;4.10;3.58;;;;;;;26.69;40.05;95301.41;5116398;28;20245;-70
2023/07/10 11:34:33;;;;;;;4.85;4.45;;;;;;;26.76;39.04;95303.19;5116132;28;20214;-70
2023/07/10 11:37:03;;;;;;;4.50;4.10;;;;;;;26.82;38.87;95302.19;5115198;28;20210;-70
2023/07/10 11:39:34;;;;;;;4.47;4.07;;;;;;;26.91;39.26;95300.69;5116312;28;20278;-70
2023/07/10 11:42:17;;;;;;;4.63;4.22;;;;;;;26.92;38.00;95303.09;5115111;28;20203;-70
2023/07/10 11:44:55;;;;;;;5.13;4.05;;;;;;;26.91;36.04;95301.50;5115195;28;20210;-70
2023/07/10 11:47:29;;;;;;;3.70;3.38;;;;;;;26.89;35.11;95293.47;5115728;28;20574;-70
2023/07/10 11:50:17;;;;;;;4.60;3.83;;;;;;;26.89;35.39;95290.63;5115434;28;20210;-70
2023/07/10 11:52:44;;;;;;;4.47;3.72;;;;;;;26.93;36.38;95292.56;5116160;28;20203;-70
2023/07/10 11:55:26;;;;;;;4.68;4.13;;;;;;;26.94;34.79;95292.09;5116354;28;20229;-70
2023/07/10 11:58:28;;;;;;;3.72;3.53;;;;;;;26.98;37.40;95284.31;5115370;28;20241;-70
2023/07/10 12:01:13;;;;;;;4.20;3.80;;;;;;;27.10;38.62;95289.13;5109220;28;20210;-70
2023/07/10 12:03:42;;;;;;;4.40;4.00;;;;;;;27.22;39.51;95281.88;5115874;28;20188;-70
2023/07/10 12:06:21;;;;;;;4.50;4.03;;;;;;;27.20;37.04;95278.75;5114617;28;20653;-70
2023/07/10 12:08:53;;;;;;;4.00;3.70;;;;;;;27.24;38.17;95278.63;5114895;28;20204;-70
2023/07/10 12:11:29;;;;;;;4.03;3.72;;;;;;;27.21;38.19;95271.81;5098372;28;20208;-70
2023/07/10 12:14:04;;;;;;;4.35;3.95;;;;;;;27.23;36.96;95266.47;5115461;28;20496;-70
2023/07/10 12:16:35;;;;;;;3.95;3.65;;;;;;;27.28;37.33;95271.56;5114811;28;20209;-70